Time;durP1;ratioP1;P1;durP2;ratioP2;P2;SDS_P1;SDS_P2;PMS_P1;PMS_P2;Temp;Humidity;BMP_temperature;BMP_pressure;BME280_temperature;BME280_humidity;BME280_pressure;Samples;Min_cycle;Max_cycle;Signal;HPM_P1;HPM_P2
2024/03/24 00:00:18;;;;;;;6.60;4.03;;;;;;;;;;5056917;28;20023;-74
2024/03/24 00:02:44;;;;;;;8.45;4.80;;;;;;;;;;5055187;28;20017;-72
2024/03/24 00:05:10;;;;;;;9.23;5.15;;;;;;;;;;5073451;28;20032;-73
2024/03/24 00:07:36;;;;;;;7.18;3.83;;;;;;;;;;5054932;28;20017;-73
2024/03/24 00:10:02;;;;;;;7.25;4.22;;;;;;;;;;5074380;28;20024;-74
2024/03/24 00:12:28;;;;;;;5.18;3.38;;;;;;;;;;5074773;28;20016;-73
2024/03/24 00:14:54;;;;;;;5.70;3.40;;;;;;;;;;5074560;28;20087;-73
2024/03/24 00:17:21;;;;;;;6.05;4.05;;;;;;;;;;5074259;28;20028;-75
2024/03/24 00:19:47;;;;;;;5.15;3.50;;;;;;;;;;5056107;28;20027;-72
2024/03/24 00:22:13;;;;;;;4.93;3.15;;;;;;;;;;5054683;28;20324;-75
2024/03/24 00:24:39;;;;;;;6.18;3.28;;;;;;;;;;5075180;28;20020;-74
2024/03/24 00:27:05;;;;;;;7.80;3.00;;;;;;;;;;5076515;28;20028;-73
2024/03/24 00:29:31;;;;;;;9.20;3.13;;;;;;;;;;5076470;28;20028;-74
2024/03/24 00:31:58;;;;;;;3.47;2.92;;;;;;;;;;5075635;28;20025;-73
2024/03/24 00:34:24;;;;;;;6.70;2.78;;;;;;;;;;5055502;28;20115;-74
2024/03/24 00:36:50;;;;;;;4.15;2.95;;;;;;;;;;5073295;28;20471;-72
2024/03/24 00:39:16;;;;;;;4.40;2.78;;;;;;;;;;5055154;28;20032;-73
2024/03/24 00:41:42;;;;;;;4.95;3.10;;;;;;;;;;5056006;28;20024;-73
2024/03/24 00:44:08;;;;;;;6.90;3.50;;;;;;;;;;5060811;28;20040;-74
2024/03/24 00:46:34;;;;;;;6.57;3.30;;;;;;;;;;5077300;28;20024;-73
2024/03/24 00:49:00;;;;;;;5.47;3.28;;;;;;;;;;5076170;28;20016;-74
2024/03/24 00:51:26;;;;;;;7.28;3.50;;;;;;;;;;5057501;28;20430;-74
2024/03/24 00:53:52;;;;;;;6.82;3.05;;;;;;;;;;5056977;28;20036;-72
2024/03/24 00:56:18;;;;;;;4.47;2.97;;;;;;;;;;5076125;28;20146;-71
2024/03/24 00:58:44;;;;;;;4.28;2.88;;;;;;;;;;5076215;28;20466;-74
2024/03/24 01:01:10;;;;;;;5.90;3.60;;;;;;;;;;5056843;28;20386;-72
2024/03/24 01:03:36;;;;;;;6.15;3.95;;;;;;;;;;5075814;28;20448;-73
2024/03/24 01:06:04;;;;;;;5.55;2.85;;;;;;;;;;5075360;28;20039;-73
2024/03/24 01:08:30;;;;;;;4.55;2.95;;;;;;;;;;5075697;28;20018;-73
2024/03/24 01:10:56;;;;;;;7.35;4.55;;;;;;;;;;5057962;28;20029;-74
2024/03/24 01:13:22;;;;;;;4.57;3.25;;;;;;;;;;5076015;28;20020;-74
2024/03/24 01:15:48;;;;;;;6.07;3.17;;;;;;;;;;5076736;28;20202;-73
2024/03/24 01:18:14;;;;;;;7.47;3.08;;;;;;;;;;5077670;28;20123;-73
2024/03/24 01:20:40;;;;;;;4.63;3.55;;;;;;;;;;5059658;28;20025;-74
2024/03/24 01:23:06;;;;;;;3.88;3.30;;;;;;;;;;5058524;28;20052;-73
2024/03/24 01:25:32;;;;;;;5.68;4.03;;;;;;;;;;5079594;28;20043;-74
2024/03/24 01:27:59;;;;;;;5.70;3.13;;;;;;;;;;5079437;28;20048;-72
2024/03/24 01:30:25;;;;;;;5.85;3.88;;;;;;;;;;5062871;28;20025;-73
2024/03/24 01:32:51;;;;;;;6.88;3.47;;;;;;;;;;5079763;28;20031;-73
2024/03/24 01:35:17;;;;;;;4.18;2.47;;;;;;;;;;5078771;28;20024;-74
2024/03/24 01:37:43;;;;;;;2.90;2.33;;;;;;;;;;5078544;28;20021;-73
2024/03/24 01:40:12;;;;;;;3.67;2.05;;;;;;;;;;5060686;28;20048;-71
2024/03/24 01:42:38;;;;;;;3.65;2.42;;;;;;;;;;5078473;28;20082;-74
2024/03/24 01:45:05;;;;;;;4.38;2.25;;;;;;;;;;5061064;28;20016;-73
2024/03/24 01:47:33;;;;;;;3.40;2.78;;;;;;;;;;5080564;28;20016;-73
2024/03/24 01:50:00;;;;;;;4.25;2.83;;;;;;;;;;5063753;28;20050;-74
2024/03/24 01:52:26;;;;;;;3.88;3.47;;;;;;;;;;5063233;28;20028;-73
2024/03/24 01:54:52;;;;;;;8.90;3.78;;;;;;;;;;5062825;28;20029;-74
2024/03/24 01:57:19;;;;;;;4.90;3.60;;;;;;;;;;5061928;28;20071;-73
2024/03/24 01:59:45;;;;;;;4.97;3.30;;;;;;;;;;5060864;28;20081;-73
2024/03/24 02:02:11;;;;;;;5.68;3.75;;;;;;;;;;5059681;28;20078;-72
2024/03/24 02:04:49;;;;;;;5.60;4.00;;;;;;;;;;5076164;28;20027;-73
2024/03/24 02:07:15;;;;;;;3.97;3.33;;;;;;;;;;5075177;28;20020;-74
2024/03/24 02:09:42;;;;;;;7.35;3.80;;;;;;;;;;5075158;28;20028;-74
2024/03/24 02:12:08;;;;;;;4.93;3.10;;;;;;;;;;5074153;28;20017;-73
2024/03/24 02:14:34;;;;;;;5.63;2.78;;;;;;;;;;5074553;28;20436;-75
2024/03/24 02:17:01;;;;;;;8.40;3.42;;;;;;;;;;5056274;28;20532;-73
2024/03/24 02:19:27;;;;;;;5.63;3.58;;;;;;;;;;5074256;28;20029;-74
2024/03/24 02:21:53;;;;;;;6.95;3.58;;;;;;;;;;5055809;28;20074;-72
2024/03/24 02:24:19;;;;;;;3.70;3.13;;;;;;;;;;5075280;28;20430;-73
2024/03/24 02:26:45;;;;;;;3.80;2.30;;;;;;;;;;5075199;28;20044;-72
2024/03/24 02:29:13;;;;;;;5.57;2.63;;;;;;;;;;5074737;28;20096;-74
2024/03/24 02:31:39;;;;;;;4.97;2.83;;;;;;;;;;5073833;28;20016;-73
2024/03/24 02:34:05;;;;;;;5.80;3.17;;;;;;;;;;5074359;28;20060;-73
2024/03/24 02:36:31;;;;;;;4.20;2.72;;;;;;;;;;5057275;28;20127;-72
2024/03/24 02:38:58;;;;;;;3.22;2.50;;;;;;;;;;5059556;28;20547;-73
2024/03/24 02:41:24;;;;;;;8.05;3.10;;;;;;;;;;5061158;28;20029;-73
2024/03/24 02:43:50;;;;;;;3.10;2.20;;;;;;;;;;5077855;28;20028;-73
2024/03/24 02:46:16;;;;;;;5.15;2.33;;;;;;;;;;5075516;28;20391;-74
2024/03/24 02:48:42;;;;;;;2.42;1.90;;;;;;;;;;5078046;28;20112;-73
2024/03/24 02:51:08;;;;;;;5.05;2.42;;;;;;;;;;5073802;28;20056;-73
2024/03/24 02:53:35;;;;;;;2.15;1.90;;;;;;;;;;5076225;28;20040;-74
2024/03/24 02:56:01;;;;;;;9.57;2.40;;;;;;;;;;5074442;28;20029;-74
2024/03/24 02:58:27;;;;;;;2.35;1.80;;;;;;;;;;5056840;28;20425;-74
2024/03/24 03:00:53;;;;;;;2.95;1.60;;;;;;;;;;5074427;28;20024;-73
2024/03/24 03:03:19;;;;;;;2.60;1.52;;;;;;;;;;5055546;28;20375;-73
2024/03/24 03:05:45;;;;;;;3.42;1.70;;;;;;;;;;5056370;28;20024;-73
2024/03/24 03:08:11;;;;;;;4.82;1.35;;;;;;;;;;5059240;28;20024;-73
2024/03/24 03:10:37;;;;;;;4.95;1.50;;;;;;;;;;5074546;28;20515;-73
2024/03/24 03:13:04;;;;;;;2.72;1.60;;;;;;;;;;5074308;28;20053;-74
2024/03/24 03:15:30;;;;;;;1.95;0.90;;;;;;;;;;5056751;28;20123;-73
2024/03/24 03:17:56;;;;;;;2.88;1.30;;;;;;;;;;5056894;28;20032;-73
2024/03/24 03:20:22;;;;;;;0.80;0.70;;;;;;;;;;5058537;28;20024;-72
2024/03/24 03:22:48;;;;;;;1.08;0.70;;;;;;;;;;5079545;28;20478;-73
2024/03/24 03:25:15;;;;;;;0.90;0.60;;;;;;;;;;5080923;28;20040;-72
2024/03/24 03:27:42;;;;;;;0.70;0.50;;;;;;;;;;5057489;28;20433;-74
2024/03/24 03:30:08;;;;;;;1.50;0.52;;;;;;;;;;5056464;28;20031;-74
2024/03/24 03:32:35;;;;;;;0.40;0.32;;;;;;;;;;5073013;28;20025;-72
2024/03/24 03:35:01;;;;;;;3.85;0.60;;;;;;;;;;5073561;28;20028;-73
2024/03/24 03:37:27;;;;;;;1.15;0.65;;;;;;;;;;5055644;28;20028;-73
2024/03/24 03:39:53;;;;;;;2.33;0.50;;;;;;;;;;5055469;28;20063;-74
2024/03/24 03:42:19;;;;;;;0.68;0.50;;;;;;;;;;5054631;28;20093;-73
2024/03/24 03:44:52;;;;;;;1.23;0.70;;;;;;;;;;5079463;28;20021;-76
2024/03/24 03:47:18;;;;;;;2.97;0.88;;;;;;;;;;5059220;28;20025;-73
2024/03/24 03:49:50;;;;;;;2.03;0.60;;;;;;;;;;5073808;28;20467;-73
2024/03/24 03:52:25;;;;;;;1.45;0.60;;;;;;;;;;5073019;28;20497;-74
2024/03/24 03:54:53;;;;;;;1.13;0.55;;;;;;;;;;5056571;28;20331;-74
2024/03/24 03:57:19;;;;;;;1.60;0.50;;;;;;;;;;5074421;28;20032;-74
2024/03/24 03:59:45;;;;;;;1.75;0.40;;;;;;;;;;5075416;28;20027;-72
2024/03/24 04:02:11;;;;;;;3.00;0.70;;;;;;;;;;5072940;28;20074;-74
2024/03/24 04:04:38;;;;;;;2.75;0.57;;;;;;;;;;5073443;28;20020;-73
2024/03/24 04:07:04;;;;;;;1.35;0.70;;;;;;;;;;5055204;28;20537;-72
2024/03/24 04:09:30;;;;;;;1.77;0.82;;;;;;;;;;5073605;28;20494;-73
2024/03/24 04:11:56;;;;;;;0.90;0.70;;;;;;;;;;5072243;28;20024;-74
2024/03/24 04:14:23;;;;;;;2.08;0.82;;;;;;;;;;5073188;28;20020;-75
2024/03/24 04:16:50;;;;;;;1.13;0.43;;;;;;;;;;5056247;28;20044;-74
2024/03/24 04:19:16;;;;;;;0.77;0.50;;;;;;;;;;5076946;28;20036;-74
2024/03/24 04:21:42;;;;;;;1.05;0.50;;;;;;;;;;5076446;28;20039;-73
2024/03/24 04:24:08;;;;;;;3.38;0.52;;;;;;;;;;5077213;28;20099;-72
2024/03/24 04:26:34;;;;;;;1.25;0.52;;;;;;;;;;5059381;28;20110;-73
2024/03/24 04:29:00;;;;;;;2.05;0.57;;;;;;;;;;5077092;28;20031;-73
2024/03/24 04:31:26;;;;;;;2.97;0.60;;;;;;;;;;5076655;28;20111;-73
2024/03/24 04:33:53;;;;;;;1.67;0.70;;;;;;;;;;5077603;28;20033;-71
2024/03/24 04:36:19;;;;;;;1.05;0.55;;;;;;;;;;5078106;28;20028;-73
2024/03/24 04:38:45;;;;;;;7.75;1.10;;;;;;;;;;5078532;28;20030;-72
2024/03/24 04:41:11;;;;;;;2.47;0.70;;;;;;;;;;5079542;28;20060;-73
2024/03/24 04:43:37;;;;;;;0.95;0.80;;;;;;;;;;5059968;28;20028;-72
2024/03/24 04:46:03;;;;;;;1.10;0.70;;;;;;;;;;5078576;28;20463;-72
2024/03/24 04:48:29;;;;;;;1.77;1.40;;;;;;;;;;5077629;28;20025;-73
2024/03/24 04:50:55;;;;;;;6.00;1.10;;;;;;;;;;5075992;28;20020;-74
2024/03/24 04:53:21;;;;;;;2.88;0.75;;;;;;;;;;5075287;28;20032;-73
2024/03/24 04:55:47;;;;;;;1.00;0.82;;;;;;;;;;5075651;28;20016;-73
2024/03/24 04:58:14;;;;;;;2.05;1.02;;;;;;;;;;5057047;28;20074;-73
2024/03/24 05:00:40;;;;;;;3.03;0.80;;;;;;;;;;5075310;28;20082;-74
2024/03/24 05:03:06;;;;;;;1.10;0.63;;;;;;;;;;5074675;28;20364;-74
2024/03/24 05:05:32;;;;;;;2.30;0.70;;;;;;;;;;5075095;28;20013;-73
2024/03/24 05:07:58;;;;;;;1.88;0.70;;;;;;;;;;5074733;28;20074;-71
2024/03/24 05:10:24;;;;;;;1.88;0.63;;;;;;;;;;5074822;28;20104;-73
2024/03/24 05:12:50;;;;;;;1.13;0.60;;;;;;;;;;5057106;28;20437;-73
2024/03/24 05:15:18;;;;;;;1.02;0.68;;;;;;;;;;5075939;28;20491;-72
2024/03/24 05:17:44;;;;;;;1.80;0.63;;;;;;;;;;5078318;28;20029;-74
2024/03/24 05:20:11;;;;;;;2.17;0.68;;;;;;;;;;5074273;28;20391;-73
2024/03/24 05:22:39;;;;;;;3.42;0.90;;;;;;;;;;5074594;28;20031;-72
2024/03/24 05:25:05;;;;;;;3.33;0.60;;;;;;;;;;5062781;28;20103;-73
2024/03/24 05:27:31;;;;;;;2.15;0.77;;;;;;;;;;5078805;28;20031;-73
2024/03/24 05:29:57;;;;;;;1.05;0.50;;;;;;;;;;5058532;28;20319;-73
2024/03/24 05:32:23;;;;;;;0.80;0.60;;;;;;;;;;5075067;28;20024;-74
2024/03/24 05:34:49;;;;;;;6.80;0.85;;;;;;;;;;5074161;28;20316;-71
2024/03/24 05:37:15;;;;;;;2.50;0.70;;;;;;;;;;5074727;28;20052;-73
2024/03/24 05:39:42;;;;;;;1.95;0.90;;;;;;;;;;5074849;28;20028;-73
2024/03/24 05:42:08;;;;;;;2.45;0.93;;;;;;;;;;5073884;28;20032;-73
2024/03/24 05:44:34;;;;;;;1.98;0.68;;;;;;;;;;5075017;28;20467;-72
2024/03/24 05:47:00;;;;;;;1.77;0.80;;;;;;;;;;5057627;28;20107;-72
2024/03/24 05:49:26;;;;;;;2.28;1.17;;;;;;;;;;5061134;28;20025;-72
2024/03/24 05:51:52;;;;;;;1.80;1.27;;;;;;;;;;5076327;28;20051;-73
2024/03/24 05:54:18;;;;;;;2.05;1.23;;;;;;;;;;5019791;28;1073278;-73
2024/03/24 05:56:44;;;;;;;2.88;1.33;;;;;;;;;;5075081;28;20017;-74
2024/03/24 05:59:10;;;;;;;2.50;1.08;;;;;;;;;;5057076;28;20395;-72
2024/03/24 06:01:36;;;;;;;2.60;1.15;;;;;;;;;;5074444;28;20032;-74
2024/03/24 06:04:02;;;;;;;1.65;1.33;;;;;;;;;;5075482;28;20379;-73
2024/03/24 06:06:29;;;;;;;1.35;0.80;;;;;;;;;;5075333;28;20372;-72
2024/03/24 06:08:55;;;;;;;3.28;1.30;;;;;;;;;;5075057;28;20024;-72
2024/03/24 06:11:22;;;;;;;1.65;1.10;;;;;;;;;;5058034;28;20020;-73
2024/03/24 06:13:48;;;;;;;1.70;1.45;;;;;;;;;;5076404;28;20025;-73
2024/03/24 06:16:14;;;;;;;1.67;1.17;;;;;;;;;;5060372;28;20037;-72
2024/03/24 06:18:40;;;;;;;2.80;1.35;;;;;;;;;;5060205;28;20024;-73
2024/03/24 06:21:06;;;;;;;2.15;0.95;;;;;;;;;;5075655;28;20028;-72
2024/03/24 06:23:32;;;;;;;1.02;0.90;;;;;;;;;;5074860;28;20024;-73
2024/03/24 06:25:58;;;;;;;1.38;0.85;;;;;;;;;;5074433;28;20025;-72
2024/03/24 06:28:24;;;;;;;3.72;0.90;;;;;;;;;;5057541;28;20066;-74
2024/03/24 06:30:52;;;;;;;1.00;0.90;;;;;;;;;;5076116;28;20029;-72
2024/03/24 06:33:18;;;;;;;1.42;0.70;;;;;;;;;;5058006;28;20074;-72
2024/03/24 06:35:45;;;;;;;1.73;0.90;;;;;;;;;;5058879;28;20051;-71
2024/03/24 06:38:11;;;;;;;2.22;0.82;;;;;;;;;;5060777;28;20479;-73
2024/03/24 06:40:37;;;;;;;4.95;1.55;;;;;;;;;;5080854;28;20059;-73
2024/03/24 06:43:03;;;;;;;2.88;0.95;;;;;;;;;;5063092;28;20504;-72
2024/03/24 06:45:34;;;;;;;3.38;1.13;;;;;;;;;;5076897;28;20455;-72
2024/03/24 06:48:05;;;;;;;2.75;0.90;;;;;;;;;;5075034;28;20467;-73
2024/03/24 06:50:31;;;;;;;1.27;0.90;;;;;;;;;;5074600;28;20030;-71
2024/03/24 06:52:58;;;;;;;9.93;1.20;;;;;;;;;;5075946;28;20028;-73
2024/03/24 06:55:25;;;;;;;2.45;0.93;;;;;;;;;;5080527;28;20483;-72
2024/03/24 06:57:51;;;;;;;3.17;1.30;;;;;;;;;;5080575;28;20028;-73
2024/03/24 07:00:18;;;;;;;1.95;1.05;;;;;;;;;;5078195;28;20035;-72
2024/03/24 07:02:44;;;;;;;4.00;1.27;;;;;;;;;;5078374;28;20502;-73
2024/03/24 07:05:10;;;;;;;2.65;1.10;;;;;;;;;;5076125;28;20031;-73
2024/03/24 07:07:36;;;;;;;2.55;1.45;;;;;;;;;;5075704;28;20031;-72
2024/03/24 07:10:03;;;;;;;2.50;1.60;;;;;;;;;;5058600;28;20386;-73
2024/03/24 07:12:29;;;;;;;4.00;1.50;;;;;;;;;;5058108;28;20020;-73
2024/03/24 07:14:55;;;;;;;2.25;1.20;;;;;;;;;;5076601;28;20103;-73
2024/03/24 07:17:21;;;;;;;7.40;1.40;;;;;;;;;;5074503;28;20032;-72
2024/03/24 07:19:47;;;;;;;2.55;1.27;;;;;;;;;;5073330;28;20024;-72
2024/03/24 07:22:14;;;;;;;4.95;1.30;;;;;;;;;;5073319;28;20376;-73
2024/03/24 07:24:40;;;;;;;3.20;1.70;;;;;;;;;;5073411;28;20020;-73
2024/03/24 07:27:06;;;;;;;4.63;1.48;;;;;;;;;;5073554;28;20016;-73
2024/03/24 07:29:32;;;;;;;2.83;1.25;;;;;;;;;;5074746;28;20099;-73
2024/03/24 07:31:58;;;;;;;1.48;1.00;;;;;;;;;;5058855;28;20020;-73
2024/03/24 07:34:24;;;;;;;2.63;1.20;;;;;;;;;;5060543;28;20101;-72
2024/03/24 07:36:50;;;;;;;5.60;1.92;;;;;;;;;;5058836;28;20031;-72
2024/03/24 07:39:16;;;;;;;6.38;1.70;;;;;;;;;;5077152;28;20032;-73
2024/03/24 07:41:42;;;;;;;2.63;1.40;;;;;;;;;;5059369;28;20174;-73
2024/03/24 07:44:08;;;;;;;2.83;2.33;;;;;;;;;;5058489;28;20020;-73
2024/03/24 07:46:34;;;;;;;2.78;1.23;;;;;;;;;;5074421;28;20024;-72
2024/03/24 07:49:00;;;;;;;3.85;1.25;;;;;;;;;;5068092;28;20395;-72
2024/03/24 07:51:27;;;;;;;3.88;1.60;;;;;;;;;;5062236;28;20037;-73
2024/03/24 07:53:53;;;;;;;2.05;1.48;;;;;;;;;;5045177;28;20029;-73
2024/03/24 07:56:19;;;;;;;4.20;2.03;;;;;;;;;;5064286;28;20036;-72
2024/03/24 07:58:45;;;;;;;8.07;2.03;;;;;;;;;;5064994;28;20482;-73
2024/03/24 08:01:11;;;;;;;2.97;1.35;;;;;;;;;;5046667;28;20025;-73
2024/03/24 08:03:37;;;;;;;3.45;1.92;;;;;;;;;;5051623;28;20239;-73
2024/03/24 08:06:03;;;;;;;3.20;1.58;;;;;;;;;;5073446;28;20095;-73
2024/03/24 08:08:29;;;;;;;3.28;1.92;;;;;;;;;;5073137;28;20017;-73
2024/03/24 08:10:55;;;;;;;2.28;1.85;;;;;;;;;;5056008;28;20329;-73
2024/03/24 08:13:21;;;;;;;6.72;1.77;;;;;;;;;;5073969;28;20059;-72
2024/03/24 08:15:48;;;;;;;3.70;1.80;;;;;;;;;;5059076;28;20032;-73
2024/03/24 08:18:14;;;;;;;4.45;2.35;;;;;;;;;;5075390;28;20021;-74
2024/03/24 08:20:47;;;;;;;4.38;2.33;;;;;;;;;;5055843;28;20423;-74
2024/03/24 08:23:14;;;;;;;5.13;2.30;;;;;;;;;;5073463;28;20035;-71
2024/03/24 08:25:41;;;;;;;2.95;2.17;;;;;;;;;;5075226;28;20040;-74
2024/03/24 08:28:07;;;;;;;5.38;2.47;;;;;;;;;;5057027;28;20085;-73
2024/03/24 08:30:33;;;;;;;4.22;2.75;;;;;;;;;;5051366;28;20028;-74
2024/03/24 08:32:59;;;;;;;8.32;2.45;;;;;;;;;;5054990;28;20025;-72
2024/03/24 08:35:25;;;;;;;4.57;2.75;;;;;;;;;;5056033;28;20036;-74
2024/03/24 08:37:51;;;;;;;9.07;4.47;;;;;;;;;;5055937;28;20039;-74
2024/03/24 08:40:17;;;;;;;4.85;2.97;;;;;;;;;;5072885;28;20028;-73
2024/03/24 08:42:44;;;;;;;5.22;2.22;;;;;;;;;;5053082;28;20078;-73
2024/03/24 08:45:10;;;;;;;6.75;2.80;;;;;;;;;;5054752;28;20544;-73
2024/03/24 08:47:36;;;;;;;4.90;3.33;;;;;;;;;;5055123;28;20024;-74
2024/03/24 08:50:03;;;;;;;3.05;2.35;;;;;;;;;;5056091;28;20154;-74
2024/03/24 08:52:29;;;;;;;8.23;2.85;;;;;;;;;;5072110;28;20029;-72
2024/03/24 08:54:55;;;;;;;6.30;3.13;;;;;;;;;;5054954;28;20032;-73
2024/03/24 08:57:22;;;;;;;6.32;3.35;;;;;;;;;;5055193;28;20039;-73
2024/03/24 08:59:48;;;;;;;4.93;3.38;;;;;;;;;;5055148;28;20089;-73
2024/03/24 09:02:14;;;;;;;8.50;3.00;;;;;;;;;;5059413;28;20031;-73
2024/03/24 09:04:40;;;;;;;10.38;3.63;;;;;;;;;;5082482;28;20047;-73
2024/03/24 09:07:06;;;;;;;4.47;2.80;;;;;;;;;;5081996;28;20025;-74
2024/03/24 09:09:32;;;;;;;15.20;4.97;;;;;;;;;;5064246;28;20028;-73
2024/03/24 09:11:58;;;;;;;5.30;3.15;;;;;;;;;;5064731;28;20541;-74
2024/03/24 09:14:24;;;;;;;10.80;3.15;;;;;;;;;;5083847;28;20033;-75
2024/03/24 09:16:50;;;;;;;4.45;2.90;;;;;;;;;;5063468;28;20028;-74
2024/03/24 09:19:16;;;;;;;7.60;3.05;;;;;;;;;;5076725;28;20028;-74
2024/03/24 09:21:42;;;;;;;6.75;2.95;;;;;;;;;;5074882;28;20035;-75
2024/03/24 09:24:09;;;;;;;5.97;3.30;;;;;;;;;;5057179;28;20090;-73
2024/03/24 09:26:35;;;;;;;10.85;3.00;;;;;;;;;;5075827;28;20029;-73
2024/03/24 09:29:02;;;;;;;10.40;4.28;;;;;;;;;;5060458;28;20023;-74
2024/03/24 09:31:28;;;;;;;7.10;3.13;;;;;;;;;;5056990;28;20024;-72
2024/03/24 09:33:54;;;;;;;6.07;3.42;;;;;;;;;;5075323;28;20074;-72
2024/03/24 09:36:20;;;;;;;7.50;3.10;;;;;;;;;;5075266;28;20029;-74
2024/03/24 09:38:46;;;;;;;9.85;3.78;;;;;;;;;;5076115;28;20031;-73
2024/03/24 09:41:12;;;;;;;5.03;2.45;;;;;;;;;;5057206;28;20120;-73
2024/03/24 09:43:39;;;;;;;9.27;2.97;;;;;;;;;;5076905;28;20108;-73
2024/03/24 09:46:05;;;;;;;6.65;2.85;;;;;;;;;;5077805;28;20494;-73
2024/03/24 09:48:33;;;;;;;5.93;2.45;;;;;;;;;;5078254;28;20031;-73
2024/03/24 09:50:59;;;;;;;4.70;2.63;;;;;;;;;;5074606;28;20364;-74
2024/03/24 09:53:25;;;;;;;6.63;2.97;;;;;;;;;;5077485;28;20029;-73
2024/03/24 09:55:51;;;;;;;4.65;2.15;;;;;;;;;;5076137;28;20029;-73
2024/03/24 09:58:19;;;;;;;5.95;2.70;;;;;;;;;;5056932;28;20123;-73
2024/03/24 10:00:46;;;;;;;7.05;2.70;;;;;;;;;;5075669;28;20023;-73
2024/03/24 10:03:12;;;;;;;10.88;3.25;;;;;;;;;;5075302;28;20024;-73
2024/03/24 10:05:39;;;;;;;5.32;2.72;;;;;;;;;;5074927;28;20024;-73
2024/03/24 10:08:05;;;;;;;3.40;2.28;;;;;;;;;;5075331;28;20032;-73
2024/03/24 10:10:36;;;;;;;6.72;2.63;;;;;;;;;;5067523;28;20097;-74
2024/03/24 10:13:03;;;;;;;4.88;2.88;;;;;;;;;;5054487;28;20025;-74
2024/03/24 10:15:29;;;;;;;3.47;2.17;;;;;;;;;;5053295;28;20115;-74
2024/03/24 10:18:06;;;;;;;2.92;1.95;;;;;;;;;;5053604;28;20106;-74
2024/03/24 10:20:33;;;;;;;4.82;2.30;;;;;;;;;;5054464;28;20025;-72
2024/03/24 10:22:59;;;;;;;5.22;2.38;;;;;;;;;;5054858;28;20485;-73
2024/03/24 10:25:26;;;;;;;5.30;2.40;;;;;;;;;;5055414;28;20096;-73
2024/03/24 10:27:52;;;;;;;7.03;2.38;;;;;;;;;;5055332;28;20031;-74
2024/03/24 10:30:19;;;;;;;5.25;2.05;;;;;;;;;;5055470;28;20029;-73
2024/03/24 10:32:45;;;;;;;3.90;2.00;;;;;;;;;;5054851;28;20484;-73
2024/03/24 10:35:11;;;;;;;4.00;1.85;;;;;;;;;;5054397;28;20029;-74
2024/03/24 10:37:38;;;;;;;4.03;1.48;;;;;;;;;;5072834;28;20035;-74
2024/03/24 10:40:04;;;;;;;5.07;2.10;;;;;;;;;;5082987;28;20033;-74
2024/03/24 10:42:32;;;;;;;5.90;1.70;;;;;;;;;;5060113;28;20424;-74
2024/03/24 10:45:02;;;;;;;2.55;1.42;;;;;;;;;;5066910;28;20024;-74
2024/03/24 10:47:28;;;;;;;3.25;1.60;;;;;;;;;;5078343;28;20452;-74
2024/03/24 10:49:55;;;;;;;6.80;2.78;;;;;;;;;;5090086;28;20021;-75
2024/03/24 10:52:23;;;;;;;4.15;1.80;;;;;;;;;;5091248;28;20116;-74
2024/03/24 10:54:50;;;;;;;5.00;1.88;;;;;;;;;;5091277;28;20059;-74
2024/03/24 10:57:17;;;;;;;2.88;1.88;;;;;;;;;;5087434;28;20024;-74
2024/03/24 10:59:44;;;;;;;3.45;1.45;;;;;;;;;;5069338;28;20036;-74
2024/03/24 11:02:17;;;;;;;2.67;1.52;;;;;;;;;;5092668;28;20025;-75
2024/03/24 11:04:43;;;;;;;7.03;1.95;;;;;;;;;;5070334;28;20019;-74
2024/03/24 11:07:09;;;;;;;7.38;1.92;;;;;;;;;;5084309;28;20021;-74
2024/03/24 11:09:35;;;;;;;4.38;1.48;;;;;;;;;;5057002;28;20028;-74
2024/03/24 11:12:02;;;;;;;4.50;1.92;;;;;;;;;;5074406;28;20029;-75
2024/03/24 11:14:28;;;;;;;5.25;2.50;;;;;;;;;;5058484;28;20037;-74
2024/03/24 11:16:54;;;;;;;3.65;1.65;;;;;;;;;;5058115;28;20028;-74
2024/03/24 11:19:26;;;;;;;6.05;2.15;;;;;;;;;;5075165;28;20078;-74
2024/03/24 11:21:52;;;;;;;4.15;2.33;;;;;;;;;;5074969;28;20475;-73
2024/03/24 11:24:32;;;;;;;3.45;1.52;;;;;;;;;;5075058;28;20051;-73
2024/03/24 11:26:59;;;;;;;5.63;2.60;;;;;;;;;;5076779;28;20029;-73
2024/03/24 11:29:43;;;;;;;3.33;1.98;;;;;;;;;;5081804;28;20418;-74
2024/03/24 11:32:11;;;;;;;3.17;1.63;;;;;;;;;;5080236;28;20391;-72
2024/03/24 11:34:42;;;;;;;5.55;1.73;;;;;;;;;;5076909;28;20179;-75
2024/03/24 11:37:08;;;;;;;5.30;1.98;;;;;;;;;;5059748;28;20024;-73
2024/03/24 11:39:35;;;;;;;4.78;1.52;;;;;;;;;;5078577;28;20032;-73
2024/03/24 11:42:11;;;;;;;3.55;1.50;;;;;;;;;;5077666;28;20027;-73
2024/03/24 11:44:38;;;;;;;3.85;1.23;;;;;;;;;;5078359;28;20386;-74
2024/03/24 11:47:04;;;;;;;3.15;1.60;;;;;;;;;;5076448;28;20252;-73
2024/03/24 11:49:50;;;;;;;4.90;1.60;;;;;;;;;;5058276;28;20017;-72
2024/03/24 11:52:16;;;;;;;5.32;1.23;;;;;;;;;;5056336;28;20024;-74
2024/03/24 11:54:46;;;;;;;3.67;1.27;;;;;;;;;;5076600;28;20032;-75
2024/03/24 11:57:12;;;;;;;3.55;1.25;;;;;;;;;;5076553;28;20040;-74
2024/03/24 11:59:38;;;;;;;3.70;1.58;;;;;;;;;;5077217;28;20459;-74
2024/03/24 12:02:05;;;;;;;3.17;1.17;;;;;;;;;;5075411;28;20032;-75
2024/03/24 12:04:32;;;;;;;3.83;1.40;;;;;;;;;;5059340;28;20395;-74
2024/03/24 12:06:59;;;;;;;2.80;1.73;;;;;;;;;;5059798;28;20036;-75
2024/03/24 12:09:27;;;;;;;2.08;1.17;;;;;;;;;;5077931;28;20383;-75
2024/03/24 12:11:56;;;;;;;2.38;1.55;;;;;;;;;;5057670;28;20028;-74
2024/03/24 12:14:23;;;;;;;3.80;2.00;;;;;;;;;;5074452;28;20029;-75
2024/03/24 12:16:49;;;;;;;2.95;1.38;;;;;;;;;;5073731;28;20471;-73
2024/03/24 12:19:15;;;;;;;2.88;1.77;;;;;;;;;;5054607;28;20406;-73
2024/03/24 12:21:42;;;;;;;2.30;1.60;;;;;;;;;;5054177;28;20055;-74
2024/03/24 12:24:08;;;;;;;1.77;0.82;;;;;;;;;;5072701;28;20028;-72
2024/03/24 12:26:34;;;;;;;5.90;1.67;;;;;;;;;;5074263;28;20391;-73
2024/03/24 12:29:00;;;;;;;2.95;1.00;;;;;;;;;;5056165;28;20111;-73
2024/03/24 12:31:26;;;;;;;2.65;1.70;;;;;;;;;;5072158;28;20040;-73
2024/03/24 12:33:53;;;;;;;4.32;1.88;;;;;;;;;;5074505;28;20039;-74
2024/03/24 12:36:19;;;;;;;3.63;1.50;;;;;;;;;;5074156;28;20020;-73
2024/03/24 12:38:46;;;;;;;3.05;1.50;;;;;;;;;;5074989;28;20383;-73
2024/03/24 12:41:22;;;;;;;4.80;1.50;;;;;;;;;;5059516;28;20074;-73
2024/03/24 12:43:56;;;;;;;1.30;1.02;;;;;;;;;;5079067;28;20055;-74
2024/03/24 12:46:26;;;;;;;5.72;1.13;;;;;;;;;;5060995;28;20017;-73
2024/03/24 12:48:52;;;;;;;2.25;1.00;;;;;;;;;;5061914;28;20479;-74
2024/03/24 12:51:19;;;;;;;2.05;0.65;;;;;;;;;;5079019;28;20055;-75
2024/03/24 12:53:48;;;;;;;1.50;0.60;;;;;;;;;;5060543;28;20031;-73
2024/03/24 12:56:16;;;;;;;1.08;0.38;;;;;;;;;;5062277;28;20051;-74
2024/03/24 12:58:44;;;;;;;1.15;0.68;;;;;;;;;;5062899;28;20024;-74
2024/03/24 13:01:11;;;;;;;4.13;1.40;;;;;;;;;;5081254;28;20024;-73
2024/03/24 13:03:38;;;;;;;1.67;0.47;;;;;;;;;;5065199;28;20033;-73
2024/03/24 13:06:15;;;;;;;1.63;0.50;;;;;;;;;;5083846;28;20021;-72
2024/03/24 13:08:42;;;;;;;1.48;0.57;;;;;;;;;;5064357;28;20020;-74
2024/03/24 13:11:08;;;;;;;1.55;0.98;;;;;;;;;;5063380;28;20107;-73
2024/03/24 13:13:34;;;;;;;5.43;0.82;;;;;;;;;;5081074;28;20024;-73
2024/03/24 13:16:01;;;;;;;1.38;0.80;;;;;;;;;;5079904;28;20028;-73
2024/03/24 13:18:27;;;;;;;2.53;1.13;;;;;;;;;;5081877;28;20055;-74
2024/03/24 13:20:55;;;;;;;2.78;1.45;;;;;;;;;;5062233;28;20317;-74
2024/03/24 13:23:23;;;;;;;2.40;0.82;;;;;;;;;;5080011;28;20039;-74
2024/03/24 13:25:52;;;;;;;1.85;0.57;;;;;;;;;;5079118;28;20103;-73
2024/03/24 13:28:18;;;;;;;2.55;0.93;;;;;;;;;;5060403;28;20020;-74
2024/03/24 13:30:47;;;;;;;5.57;0.98;;;;;;;;;;5078301;28;20040;-74
2024/03/24 13:33:17;;;;;;;2.92;0.82;;;;;;;;;;5059294;28;20028;-73
2024/03/24 13:35:43;;;;;;;2.05;0.70;;;;;;;;;;5079209;28;20048;-73
2024/03/24 13:38:27;;;;;;;1.40;0.70;;;;;;;;;;5061397;28;20035;-74
2024/03/24 13:41:14;;;;;;;1.50;0.68;;;;;;;;;;5060109;28;20097;-74
2024/03/24 13:43:41;;;;;;;2.22;1.08;;;;;;;;;;5060113;28;20031;-75
2024/03/24 13:46:17;;;;;;;1.10;0.65;;;;;;;;;;5061278;28;20029;-73
2024/03/24 13:48:45;;;;;;;4.97;0.98;;;;;;;;;;5062238;28;21047;-73
2024/03/24 13:51:12;;;;;;;2.08;0.60;;;;;;;;;;5061274;28;20020;-72
2024/03/24 13:53:43;;;;;;;2.35;0.57;;;;;;;;;;5063846;28;20105;-74
2024/03/24 13:56:09;;;;;;;5.28;1.13;;;;;;;;;;5062582;28;20032;-72
2024/03/24 13:58:35;;;;;;;1.00;0.60;;;;;;;;;;5062319;28;20029;-73
2024/03/24 14:01:02;;;;;;;1.63;1.10;;;;;;;;;;5078679;28;20433;-73
2024/03/24 14:03:29;;;;;;;3.58;0.88;;;;;;;;;;5076581;28;20103;-73
2024/03/24 14:05:55;;;;;;;3.47;1.55;;;;;;;;;;5059142;28;20451;-73
2024/03/24 14:08:21;;;;;;;2.85;1.30;;;;;;;;;;5076508;28;20031;-74
2024/03/24 14:10:47;;;;;;;2.15;0.80;;;;;;;;;;5076015;28;20025;-74
2024/03/24 14:13:32;;;;;;;4.38;1.80;;;;;;;;;;5075674;28;20024;-73
2024/03/24 14:16:17;;;;;;;4.10;1.45;;;;;;;;;;5057174;28;20142;-73
2024/03/24 14:18:52;;;;;;;3.80;1.00;;;;;;;;;;5075015;28;20029;-72
2024/03/24 14:21:24;;;;;;;0.77;0.43;;;;;;;;;;5056067;28;20035;-73
2024/03/24 14:23:55;;;;;;;2.00;0.60;;;;;;;;;;5074874;28;20024;-73
2024/03/24 14:26:21;;;;;;;4.43;1.13;;;;;;;;;;5057918;28;20033;-73
2024/03/24 14:28:48;;;;;;;3.08;1.38;;;;;;;;;;5074887;28;20047;-74
2024/03/24 14:31:14;;;;;;;4.35;1.10;;;;;;;;;;5056398;28;20020;-73
2024/03/24 14:33:41;;;;;;;3.47;1.35;;;;;;;;;;5057879;28;20029;-73
2024/03/24 14:36:07;;;;;;;4.63;1.58;;;;;;;;;;5079143;28;20029;-75
2024/03/24 14:38:52;;;;;;;2.40;1.30;;;;;;;;;;5064715;28;20127;-73
2024/03/24 14:41:24;;;;;;;5.15;2.03;;;;;;;;;;5082867;28;20035;-73